Time;durP1;ratioP1;P1;durP2;ratioP2;P2;SDS_P1;SDS_P2;PMS_P1;PMS_P2;Temp;Humidity;BMP_temperature;BMP_pressure;BME280_temperature;BME280_humidity;BME280_pressure;Samples;Min_cycle;Max_cycle;Signal;HPM_P1;HPM_P2
2021/04/13 00:01:35;;;;;;;22.40;12.27;;;8.30;99.90;;;;;;4899298;29;20197;-85
2021/04/13 00:04:11;;;;;;;19.57;12.57;;;8.30;99.90;;;;;;4899838;29;20216;-85
2021/04/13 00:06:42;;;;;;;19.20;12.93;;;8.10;99.90;;;;;;4900250;29;20265;-85
2021/04/13 00:09:16;;;;;;;17.57;11.03;;;8.10;99.90;;;;;;4899799;29;20201;-85
2021/04/13 00:11:45;;;;;;;22.70;11.97;;;8.00;99.90;;;;;;4898827;29;20252;-84
2021/04/13 00:14:18;;;;;;;19.13;13.13;;;7.90;99.90;;;;;;4900008;29;20220;-85
2021/04/13 00:16:45;;;;;;;20.37;13.23;;;7.80;99.90;;;;;;4899055;29;20248;-84
2021/04/13 00:19:11;;;;;;;23.00;12.53;;;7.80;99.90;;;;;;4899358;29;20213;-85
2021/04/13 00:21:41;;;;;;;24.70;13.87;;;7.70;99.90;;;;;;4900436;29;20190;-84
2021/04/13 00:24:16;;;;;;;21.37;13.10;;;7.60;99.90;;;;;;4899008;29;20722;-84
2021/04/13 00:26:48;;;;;;;22.93;13.13;;;7.60;99.90;;;;;;4900156;29;20244;-84
2021/04/13 00:29:25;;;;;;;21.20;13.43;;;7.50;99.90;;;;;;4900061;29;20237;-85
2021/04/13 00:31:56;;;;;;;23.70;16.27;;;7.50;99.90;;;;;;4900582;29;20181;-84
2021/04/13 00:34:27;;;;;;;26.20;14.57;;;7.40;99.90;;;;;;4900849;29;20201;-85
2021/04/13 00:37:09;;;;;;;21.37;12.83;;;7.40;99.90;;;;;;4899050;29;20190;-85
2021/04/13 00:39:35;;;;;;;22.00;14.80;;;7.40;99.90;;;;;;4902952;29;20204;-83
2021/04/13 00:42:04;;;;;;;24.33;13.97;;;7.30;99.90;;;;;;4923103;29;20177;-85
2021/04/13 00:44:35;;;;;;;24.07;14.33;;;7.30;99.90;;;;;;4923673;29;20175;-85
2021/04/13 00:47:06;;;;;;;24.83;13.90;;;7.30;99.90;;;;;;4912056;29;20177;-85
2021/04/13 00:49:35;;;;;;;22.83;14.77;;;7.30;99.90;;;;;;4899977;29;20678;-85
2021/04/13 00:52:06;;;;;;;26.13;15.20;;;7.30;99.90;;;;;;4899121;29;20181;-85
2021/04/13 00:54:54;;;;;;;23.97;14.80;;;7.30;99.90;;;;;;4899122;29;20683;-85
2021/04/13 00:57:25;;;;;;;24.63;13.50;;;7.20;99.90;;;;;;4898192;29;20193;-85
2021/04/13 00:59:53;;;;;;;26.53;13.80;;;7.20;99.90;;;;;;4899146;29;20184;-86
2021/04/13 01:02:29;;;;;;;25.00;14.47;;;7.30;99.90;;;;;;4899458;29;20647;-84
2021/04/13 01:05:03;;;;;;;27.90;14.80;;;7.20;99.90;;;;;;4898826;29;20250;-85
2021/04/13 01:07:38;;;;;;;24.73;17.30;;;7.20;99.90;;;;;;4899355;29;20276;-85
2021/04/13 01:10:17;;;;;;;23.53;16.30;;;7.10;99.90;;;;;;4898795;29;20225;-85
2021/04/13 01:12:48;;;;;;;26.60;16.17;;;7.10;99.90;;;;;;4899374;29;20201;-84
2021/04/13 01:15:15;;;;;;;24.73;15.93;;;7.00;99.90;;;;;;4899028;29;20229;-85
2021/04/13 01:17:43;;;;;;;28.43;15.83;;;7.00;99.90;;;;;;4898351;29;20241;-84
2021/04/13 01:20:32;;;;;;;26.73;16.13;;;7.00;99.90;;;;;;4899139;29;20669;-85
2021/04/13 01:23:07;;;;;;;29.93;14.80;;;7.00;99.90;;;;;;4897969;29;20174;-85
2021/04/13 01:25:40;;;;;;;25.10;14.93;;;7.00;99.90;;;;;;4898107;29;20184;-85
2021/04/13 01:28:05;;;;;;;23.37;15.60;;;6.90;99.90;;;;;;4899079;29;20594;-85
2021/04/13 01:30:42;;;;;;;29.57;16.77;;;6.90;99.90;;;;;;4898746;29;20181;-85
2021/04/13 01:33:22;;;;;;;29.80;15.53;;;6.70;99.90;;;;;;4897338;29;20192;-85
2021/04/13 01:35:52;;;;;;;31.33;15.20;;;6.70;99.90;;;;;;4898954;29;20237;-84
2021/04/13 01:38:29;;;;;;;32.40;16.93;;;6.70;99.90;;;;;;4898500;29;20180;-84
2021/04/13 01:43:27;;;;;;;27.80;17.33;;;6.70;99.90;;;;;;4899208;29;20526;-85
2021/04/13 01:45:53;;;;;;;28.60;16.57;;;6.60;99.90;;;;;;4898298;29;20710;-84
2021/04/13 01:48:19;;;;;;;29.90;15.00;;;6.50;99.90;;;;;;4898400;29;20272;-84
2021/04/13 01:50:54;;;;;;;30.20;14.60;;;6.50;99.90;;;;;;4897486;29;20178;-84
2021/04/13 01:53:22;;;;;;;25.60;15.27;;;6.50;99.90;;;;;;4896912;29;20201;-84
2021/04/13 01:55:48;;;;;;;30.87;15.50;;;6.50;99.90;;;;;;4897367;29;20335;-84
2021/04/13 01:59:06;;;;;;;25.87;14.47;;;6.50;99.90;;;;;;4898168;29;20177;-85
2021/04/13 02:01:42;;;;;;;25.43;14.57;;;6.50;99.90;;;;;;4896506;29;20677;-85
2021/04/13 02:04:20;;;;;;;28.07;13.17;;;6.30;99.90;;;;;;4897891;29;20206;-85
2021/04/13 02:10:35;;;;;;;20.60;12.67;;;6.30;99.90;;;;;;4897464;29;20232;-85
2021/04/13 02:13:11;;;;;;;21.30;10.53;;;6.20;99.90;;;;;;4897491;29;20201;-85
2021/04/13 02:16:01;;;;;;;20.37;12.07;;;6.20;99.90;;;;;;4898762;29;20694;-85
2021/04/13 02:18:34;;;;;;;27.33;12.30;;;6.20;99.90;;;;;;4899030;29;20765;-84
2021/04/13 02:20:59;;;;;;;22.77;12.57;;;6.10;99.90;;;;;;4898298;29;20211;-85
2021/04/13 02:23:30;;;;;;;20.03;13.10;;;6.30;99.90;;;;;;4896645;29;20598;-85
2021/04/13 02:25:58;;;;;;;20.17;11.57;;;6.10;99.90;;;;;;4898814;29;20192;-84
2021/04/13 02:28:26;;;;;;;15.03;9.77;;;6.10;99.90;;;;;;4898144;29;20180;-84
2021/04/13 02:30:52;;;;;;;21.23;12.20;;;6.10;99.90;;;;;;4897107;29;20230;-85
2021/04/13 02:33:17;;;;;;;19.80;11.03;;;6.00;99.90;;;;;;4897611;29;20220;-85
2021/04/13 02:35:44;;;;;;;16.17;10.03;;;5.90;99.90;;;;;;4897118;29;20193;-85
2021/04/13 02:38:21;;;;;;;21.17;10.40;;;6.00;99.90;;;;;;4897691;29;20213;-85
2021/04/13 02:41:01;;;;;;;16.07;10.73;;;6.00;99.90;;;;;;4898293;29;20184;-85
2021/04/13 02:43:42;;;;;;;18.97;10.33;;;5.90;99.90;;;;;;4898595;29;20236;-84
2021/04/13 02:46:12;;;;;;;17.43;10.23;;;5.90;99.90;;;;;;4899928;29;20188;-84
2021/04/13 02:48:43;;;;;;;17.30;9.97;;;5.80;99.90;;;;;;4901355;29;20204;-84
2021/04/13 02:51:12;;;;;;;12.93;8.63;;;5.70;99.90;;;;;;4901217;29;20681;-84
2021/04/13 02:53:49;;;;;;;14.67;9.17;;;5.80;99.90;;;;;;4901777;29;20701;-84
2021/04/13 02:56:22;;;;;;;14.07;9.13;;;5.70;99.90;;;;;;4902005;29;20217;-84
2021/04/13 02:59:00;;;;;;;14.43;9.57;;;5.70;99.90;;;;;;4902301;29;20275;-84
2021/04/13 03:01:26;;;;;;;13.70;10.40;;;5.60;99.90;;;;;;4901980;29;20249;-84
2021/04/13 03:03:54;;;;;;;13.07;8.67;;;5.60;99.90;;;;;;4901424;29;20666;-84
2021/04/13 03:06:21;;;;;;;15.60;10.60;;;5.60;99.90;;;;;;4901543;29;20208;-85
2021/04/13 03:08:47;;;;;;;14.77;8.80;;;5.70;99.90;;;;;;4900032;29;20198;-84
2021/04/13 03:11:21;;;;;;;14.13;9.20;;;5.60;99.90;;;;;;4900853;29;20232;-85
2021/04/13 03:13:49;;;;;;;15.27;9.60;;;5.60;99.90;;;;;;4901079;29;20199;-84
2021/04/13 03:16:21;;;;;;;12.90;9.73;;;5.60;99.90;;;;;;4900237;29;20542;-85
2021/04/13 03:18:53;;;;;;;19.07;11.23;;;5.60;99.90;;;;;;4901982;29;20231;-85
2021/04/13 03:21:27;;;;;;;16.43;8.77;;;5.60;99.90;;;;;;4900037;29;20248;-85
2021/04/13 03:23:56;;;;;;;15.33;9.80;;;5.50;99.90;;;;;;4901534;29;20188;-85
2021/04/13 03:26:30;;;;;;;12.27;9.40;;;5.50;99.90;;;;;;4900566;29;20188;-85
2021/04/13 03:29:01;;;;;;;12.07;8.57;;;5.50;99.90;;;;;;4900863;29;20276;-85
2021/04/13 03:31:32;;;;;;;13.97;7.97;;;5.50;99.90;;;;;;4902214;29;20178;-86
2021/04/13 03:34:00;;;;;;;12.37;8.30;;;5.40;99.90;;;;;;4900635;29;20263;-85
2021/04/13 03:36:26;;;;;;;12.00;7.47;;;5.40;99.90;;;;;;4900942;29;20268;-85
2021/04/13 03:39:07;;;;;;;10.73;7.80;;;5.40;99.90;;;;;;4901329;29;20725;-85
2021/04/13 03:41:33;;;;;;;12.17;7.00;;;5.30;99.90;;;;;;4901371;29;20653;-85
2021/04/13 03:44:02;;;;;;;12.33;6.93;;;5.30;99.90;;;;;;4900948;29;20196;-86
2021/04/13 03:46:38;;;;;;;14.50;7.50;;;5.30;99.90;;;;;;4900694;29;20741;-86
2021/04/13 03:49:14;;;;;;;14.93;7.77;;;5.20;99.90;;;;;;4900937;29;20216;-87
2021/04/13 03:51:45;;;;;;;10.57;7.57;;;5.20;99.90;;;;;;4901142;29;20669;-85
2021/04/13 03:54:20;;;;;;;9.53;6.93;;;5.10;99.90;;;;;;4900642;29;20239;-86
2021/04/13 03:56:45;;;;;;;13.23;8.73;;;5.20;99.90;;;;;;4899609;29;20268;-86
2021/04/13 03:59:22;;;;;;;9.97;8.03;;;5.20;99.90;;;;;;4900986;29;20730;-86
2021/04/13 04:01:50;;;;;;;14.23;8.53;;;5.10;99.90;;;;;;4900560;29;20227;-85
2021/04/13 04:04:32;;;;;;;12.03;7.50;;;5.10;99.90;;;;;;4900189;29;20211;-86
2021/04/13 04:07:58;;;;;;;12.50;7.90;;;5.10;99.90;;;;;;4900737;29;20181;-85
2021/04/13 04:10:57;;;;;;;13.50;8.27;;;5.00;99.90;;;;;;4900185;29;20232;-85
2021/04/13 04:13:31;;;;;;;15.23;8.83;;;4.90;99.90;;;;;;4898018;29;20224;-85
2021/04/13 04:16:14;;;;;;;12.97;8.80;;;5.00;99.90;;;;;;4900313;29;20695;-86
2021/04/13 04:18:47;;;;;;;10.77;7.67;;;4.90;99.90;;;;;;4900669;29;20179;-85
2021/04/13 04:21:33;;;;;;;16.20;8.63;;;4.80;99.90;;;;;;4900087;29;20235;-86
2021/04/13 04:24:41;;;;;;;11.77;8.80;;;4.90;99.90;;;;;;4900315;29;20214;-86
2021/04/13 04:27:13;;;;;;;13.77;8.53;;;4.80;99.90;;;;;;4895871;29;20201;-85
2021/04/13 04:29:48;;;;;;;9.73;7.13;;;4.80;99.90;;;;;;4898899;29;20189;-85
2021/04/13 04:32:29;;;;;;;10.87;8.17;;;4.90;99.90;;;;;;4899865;29;20203;-85
2021/04/13 04:35:00;;;;;;;12.50;7.90;;;4.90;99.90;;;;;;4900232;29;20571;-85
2021/04/13 04:37:30;;;;;;;9.87;7.13;;;4.90;99.90;;;;;;4899475;29;20188;-85
2021/04/13 04:40:16;;;;;;;10.87;7.97;;;4.90;99.90;;;;;;4897525;29;20180;-85
2021/04/13 04:42:57;;;;;;;13.47;8.50;;;4.90;99.90;;;;;;4897153;29;20193;-84
2021/04/13 04:45:44;;;;;;;12.73;8.37;;;4.80;99.90;;;;;;4888692;29;20266;-84
2021/04/13 04:48:36;;;;;;;16.30;7.13;;;4.90;99.90;;;;;;4893955;29;20192;-84
2021/04/13 04:51:06;;;;;;;13.20;7.77;;;4.90;99.90;;;;;;4894902;29;20208;-84
2021/04/13 04:53:33;;;;;;;13.87;7.77;;;4.90;99.90;;;;;;4887045;29;20300;-83
2021/04/13 04:56:04;;;;;;;15.93;8.73;;;4.90;99.90;;;;;;4892832;29;20200;-83
2021/04/13 04:58:30;;;;;;;12.87;7.70;;;4.90;99.90;;;;;;4888133;29;20680;-82
2021/04/13 05:00:56;;;;;;;13.70;7.37;;;4.80;99.90;;;;;;4892430;29;20219;-84
2021/04/13 05:03:23;;;;;;;12.10;8.20;;;4.90;99.90;;;;;;4886301;29;20269;-84
2021/04/13 05:05:50;;;;;;;14.87;7.17;;;4.80;99.90;;;;;;4897371;29;20219;-84
2021/04/13 05:08:16;;;;;;;12.50;8.17;;;4.80;99.90;;;;;;4897358;29;20190;-84
2021/04/13 05:10:42;;;;;;;13.83;7.90;;;4.80;99.90;;;;;;4887060;29;20245;-84
2021/04/13 05:13:08;;;;;;;13.77;8.30;;;4.80;99.90;;;;;;4895324;29;20697;-83
2021/04/13 05:15:33;;;;;;;12.77;7.53;;;4.90;99.90;;;;;;4897044;29;20204;-85
2021/04/13 05:17:59;;;;;;;10.80;6.87;;;4.90;99.90;;;;;;4886655;29;20187;-88
2021/04/13 05:20:25;;;;;;;9.90;7.70;;;5.00;99.90;;;;;;4880126;29;20195;-85
2021/04/13 05:22:50;;;;;;;13.77;7.60;;;4.90;99.90;;;;;;4896899;29;20195;-85
2021/04/13 05:25:16;;;;;;;13.23;8.10;;;4.90;99.90;;;;;;4897593;29;20537;-83
2021/04/13 05:27:42;;;;;;;13.07;7.83;;;4.90;99.90;;;;;;4897192;29;20189;-86
2021/04/13 05:30:10;;;;;;;13.90;9.23;;;4.90;99.90;;;;;;4895691;29;20197;-84
2021/04/13 05:32:37;;;;;;;20.37;7.20;;;5.00;99.90;;;;;;4896988;29;20657;-83
2021/04/13 05:35:03;;;;;;;13.97;7.60;;;5.00;99.90;;;;;;4897239;29;20216;-83
2021/04/13 05:37:31;;;;;;;14.40;8.30;;;4.90;99.90;;;;;;4894204;29;20204;-83
2021/04/13 05:39:57;;;;;;;11.27;7.97;;;4.90;99.90;;;;;;4895909;29;20191;-83
2021/04/13 05:42:29;;;;;;;9.87;7.50;;;4.80;99.90;;;;;;4896883;29;20185;-84
2021/04/13 05:44:56;;;;;;;13.63;7.70;;;4.90;99.90;;;;;;4895424;29;20188;-83
2021/04/13 05:47:26;;;;;;;12.37;7.73;;;4.90;99.90;;;;;;4887351;29;20183;-84
2021/04/13 05:49:52;;;;;;;13.73;8.47;;;4.90;99.90;;;;;;4897365;29;20207;-84
2021/04/13 05:52:17;;;;;;;10.90;7.30;;;5.00;99.90;;;;;;4896440;29;20612;-85
2021/04/13 05:54:43;;;;;;;18.73;7.50;;;5.00;99.90;;;;;;4891278;29;20220;-86
2021/04/13 05:57:24;;;;;;;11.30;7.37;;;5.00;99.90;;;;;;4882917;29;20267;-86
2021/04/13 05:59:53;;;;;;;11.00;7.73;;;5.10;99.90;;;;;;4910275;29;20172;-85
2021/04/13 06:02:19;;;;;;;11.83;7.67;;;5.10;99.90;;;;;;4919521;29;20195;-84
2021/04/13 06:04:48;;;;;;;11.23;7.37;;;5.10;99.90;;;;;;4914766;29;20215;-85
2021/04/13 06:07:14;;;;;;;8.93;6.93;;;5.10;99.90;;;;;;4913671;29;20245;-85
2021/04/13 06:09:40;;;;;;;14.37;6.93;;;5.10;99.90;;;;;;4891372;29;20617;-85
2021/04/13 06:12:06;;;;;;;9.07;6.47;;;5.10;99.90;;;;;;4900736;29;20195;-85
2021/04/13 06:14:35;;;;;;;9.13;6.93;;;5.10;99.90;;;;;;4901534;29;20209;-86
2021/04/13 06:17:03;;;;;;;10.13;7.00;;;5.10;99.90;;;;;;4884197;29;20195;-84
2021/04/13 06:19:31;;;;;;;14.13;7.57;;;5.10;99.90;;;;;;4898258;29;20208;-84
2021/04/13 06:21:57;;;;;;;10.83;7.17;;;5.10;99.90;;;;;;4900481;29;20196;-84
2021/04/13 06:24:23;;;;;;;9.63;6.47;;;5.00;99.90;;;;;;4902008;29;20199;-87
2021/04/13 06:26:48;;;;;;;10.67;7.50;;;5.10;99.90;;;;;;4887735;29;20184;-85
2021/04/13 06:29:14;;;;;;;14.00;7.90;;;5.00;99.90;;;;;;4904308;29;20195;-83
2021/04/13 06:31:40;;;;;;;12.60;9.13;;;5.00;99.90;;;;;;4901812;29;20181;-86
2021/04/13 06:34:06;;;;;;;10.63;7.47;;;4.80;99.90;;;;;;4903021;29;20207;-84
2021/04/13 06:36:37;;;;;;;15.37;9.27;;;4.90;99.90;;;;;;4900059;29;20252;-84
2021/04/13 06:39:04;;;;;;;16.60;10.23;;;4.80;99.90;;;;;;4900587;29;20193;-85
2021/04/13 06:41:50;;;;;;;20.70;11.67;;;4.70;99.90;;;;;;4901147;29;20184;-85
2021/04/13 06:44:44;;;;;;;12.13;8.87;;;4.70;99.90;;;;;;4898838;29;20248;-84
2021/04/13 06:47:18;;;;;;;17.20;9.40;;;4.80;99.90;;;;;;4896187;29;20181;-84
2021/04/13 06:50:10;;;;;;;15.23;8.63;;;4.80;99.90;;;;;;4894859;29;20191;-83
2021/04/13 06:52:58;;;;;;;13.30;8.60;;;4.80;99.90;;;;;;4897159;29;20265;-83
2021/04/13 06:55:43;;;;;;;16.33;8.67;;;4.80;99.90;;;;;;4897189;29;20256;-83
2021/04/13 06:58:36;;;;;;;17.40;8.60;;;4.80;99.90;;;;;;4897109;29;20216;-84
2021/04/13 07:01:18;;;;;;;14.53;7.43;;;4.80;99.90;;;;;;4895493;29;20181;-84
2021/04/13 07:04:08;;;;;;;11.27;7.93;;;4.80;99.90;;;;;;4893532;29;20200;-84
2021/04/13 07:06:57;;;;;;;15.00;8.23;;;4.80;99.90;;;;;;4906817;29;20237;-86
2021/04/13 07:09:38;;;;;;;13.93;8.47;;;4.80;99.90;;;;;;4895911;29;20204;-85
2021/04/13 07:12:11;;;;;;;11.47;6.83;;;4.80;99.90;;;;;;4897262;29;20347;-86
2021/04/13 07:15:13;;;;;;;10.73;7.30;;;4.80;99.90;;;;;;4897533;29;20216;-85
2021/04/13 07:17:58;;;;;;;10.70;8.63;;;4.90;99.90;;;;;;4891728;29;20605;-85
2021/04/13 07:20:31;;;;;;;8.70;6.80;;;4.90;99.90;;;;;;4897703;29;20681;-85
2021/04/13 07:23:23;;;;;;;12.33;7.60;;;4.90;99.90;;;;;;4897572;29;20646;-86
2021/04/13 07:26:15;;;;;;;11.20;7.70;;;4.80;99.90;;;;;;4897721;29;20208;-86
2021/04/13 07:29:12;;;;;;;13.17;8.33;;;4.80;99.90;;;;;;4896082;29;20194;-85
2021/04/13 07:31:44;;;;;;;14.20;7.57;;;3.60;99.90;;;;;;4900543;29;20204;-85
2021/04/13 07:34:10;;;;;;;11.43;6.97;;;4.80;99.90;;;;;;4901033;29;20220;-85
2021/04/13 07:36:45;;;;;;;12.10;6.90;;;4.80;99.90;;;;;;4899787;29;20751;-84
2021/04/13 07:39:12;;;;;;;9.73;6.23;;;4.70;99.90;;;;;;4899689;29;20211;-85
2021/04/13 07:41:51;;;;;;;11.90;7.03;;;4.80;99.90;;;;;;4899644;29;20188;-84
2021/04/13 07:44:52;;;;;;;12.47;7.27;;;4.80;99.90;;;;;;4899550;29;20247;-85
2021/04/13 07:47:38;;;;;;;9.80;6.83;;;4.80;99.90;;;;;;4899964;29;20290;-87
2021/04/13 07:50:04;;;;;;;12.40;6.53;;;4.70;99.90;;;;;;4899940;29;20196;-84
2021/04/13 07:52:47;;;;;;;12.13;7.27;;;4.60;99.90;;;;;;4884297;29;20269;-85
2021/04/13 07:55:23;;;;;;;10.50;7.13;;;4.60;99.90;;;;;;4900185;29;20217;-85
2021/04/13 07:58:23;;;;;;;10.67;7.47;;;4.70;99.90;;;;;;4897163;29;20240;-85
2021/04/13 08:00:54;;;;;;;9.60;6.90;;;4.60;99.90;;;;;;4907262;29;20248;-85
2021/04/13 08:03:23;;;;;;;7.33;5.33;;;4.50;99.90;;;;;;4897409;29;20270;-85
2021/04/13 08:05:51;;;;;;;8.37;5.67;;;4.60;99.90;;;;;;4897961;29;20648;-85
2021/04/13 08:08:36;;;;;;;10.93;6.70;;;4.60;99.90;;;;;;4899613;29;20232;-85
2021/04/13 08:11:22;;;;;;;9.23;6.23;;;4.50;99.90;;;;;;4899446;29;20243;-85
2021/04/13 08:13:50;;;;;;;8.67;5.57;;;4.50;99.90;;;;;;4898847;29;20223;-86
2021/04/13 08:16:38;;;;;;;9.93;6.47;;;4.50;99.90;;;;;;4900123;29;20179;-86
2021/04/13 08:19:25;;;;;;;8.13;6.47;;;4.50;99.90;;;;;;4900247;29;20187;-85
2021/04/13 08:22:00;;;;;;;13.80;7.27;;;4.60;99.90;;;;;;4900437;29;20192;-84
2021/04/13 08:24:32;;;;;;;8.97;6.70;;;4.40;99.90;;;;;;4900439;29;20205;-84
2021/04/13 08:27:24;;;;;;;8.90;6.63;;;4.50;99.90;;;;;;4900278;29;20178;-86
2021/04/13 08:30:09;;;;;;;8.77;6.37;;;4.50;99.90;;;;;;4899399;29;20218;-84
2021/04/13 08:33:10;;;;;;;9.27;6.53;;;4.40;99.90;;;;;;4900633;29;20258;-83
2021/04/13 08:36:02;;;;;;;8.67;6.60;;;4.30;99.90;;;;;;4904010;29;20200;-84
2021/04/13 08:38:46;;;;;;;9.50;6.07;;;4.30;99.90;;;;;;4900368;29;20715;-84
2021/04/13 08:41:39;;;;;;;7.63;6.53;;;4.40;99.90;;;;;;4897760;29;20186;-87
2021/04/13 08:44:37;;;;;;;8.60;5.27;;;4.40;99.90;;;;;;4897255;29;20186;-87
2021/04/13 08:47:36;;;;;;;7.87;6.13;;;4.50;99.90;;;;;;4898470;29;20195;-91
2021/04/13 08:50:36;;;;;;;12.63;6.03;;;4.40;99.90;;;;;;4899732;29;20442;-93
2021/04/13 08:53:08;;;;;;;8.33;5.70;;;4.40;99.90;;;;;;4898467;29;20543;-90
2021/04/13 08:55:36;;;;;;;9.23;6.13;;;4.40;99.90;;;;;;4898929;29;20213;-90
2021/04/13 08:58:19;;;;;;;7.63;5.67;;;4.40;99.90;;;;;;4898550;29;20187;-89
2021/04/13 09:00:52;;;;;;;7.33;5.63;;;4.30;99.90;;;;;;4899815;29;20183;-86
2021/04/13 09:03:21;;;;;;;9.07;5.93;;;4.10;99.90;;;;;;4885307;29;20313;-86
2021/04/13 09:06:03;;;;;;;11.70;6.23;;;3.90;99.90;;;;;;4883313;29;20210;-84
2021/04/13 09:08:52;;;;;;;10.50;6.40;;;4.30;99.90;;;;;;4881013;29;20178;-85
2021/04/13 09:11:34;;;;;;;11.80;5.83;;;4.40;99.90;;;;;;4881248;29;20266;-84
2021/04/13 09:14:01;;;;;;;8.80;6.43;;;4.40;99.90;;;;;;4881151;29;20222;-84
2021/04/13 09:16:29;;;;;;;15.13;5.97;;;4.40;99.90;;;;;;4881075;29;20211;-85
2021/04/13 09:18:57;;;;;;;8.97;7.20;;;4.40;99.90;;;;;;4895129;29;20229;-84
2021/04/13 09:21:50;;;;;;;11.93;6.97;;;4.40;99.90;;;;;;4880594;29;20237;-84
2021/04/13 09:24:21;;;;;;;10.10;6.60;;;4.40;99.90;;;;;;4880551;29;20186;-85
2021/04/13 09:26:58;;;;;;;8.60;6.13;;;4.40;99.90;;;;;;4881168;29;20179;-85
2021/04/13 09:29:39;;;;;;;9.77;6.83;;;4.30;99.90;;;;;;4880848;29;20189;-85
2021/04/13 09:32:18;;;;;;;9.63;6.97;;;4.30;99.90;;;;;;4879295;29;20189;-86
2021/04/13 09:34:43;;;;;;;9.30;6.57;;;4.40;99.90;;;;;;4880368;29;20215;-86
2021/04/13 09:37:23;;;;;;;10.90;6.87;;;4.40;99.90;;;;;;4880396;29;20672;-85
2021/04/13 09:39:54;;;;;;;8.87;7.47;;;4.30;99.90;;;;;;4880375;29;20188;-86
2021/04/13 09:42:49;;;;;;;9.83;6.20;;;4.30;99.90;;;;;;4883716;29;20531;-85
2021/04/13 09:45:41;;;;;;;9.83;6.97;;;4.20;99.90;;;;;;4897667;29;20189;-86
2021/04/13 09:48:25;;;;;;;10.30;7.00;;;4.20;99.90;;;;;;4897292;29;20186;-85
2021/04/13 09:51:30;;;;;;;11.10;8.00;;;4.20;99.90;;;;;;4898000;29;20184;-85
2021/04/13 09:54:10;;;;;;;12.33;7.60;;;4.20;99.90;;;;;;4882015;29;20243;-86
2021/04/13 09:57:13;;;;;;;10.93;7.53;;;4.10;99.90;;;;;;4900346;29;20193;-85
2021/04/13 09:59:51;;;;;;;10.20;7.40;;;4.20;99.90;;;;;;4891584;29;20190;-87
2021/04/13 10:02:19;;;;;;;11.67;8.57;;;4.10;99.90;;;;;;4899697;29;20184;-83
2021/04/13 10:04:55;;;;;;;13.47;8.37;;;4.10;99.90;;;;;;4899083;29;20186;-87
2021/04/13 10:07:53;;;;;;;18.13;9.90;;;4.10;99.90;;;;;;4898935;29;20215;-85
2021/04/13 10:10:23;;;;;;;14.83;9.80;;;4.10;99.90;;;;;;4893775;29;20243;-85
2021/04/13 10:13:26;;;;;;;12.17;8.73;;;5.00;99.90;;;;;;4915815;29;20294;-86
2021/04/13 10:16:06;;;;;;;15.57;9.63;;;4.10;99.90;;;;;;4915851;29;20540;-85
2021/04/13 10:18:32;;;;;;;13.53;8.67;;;4.00;99.90;;;;;;4901529;29;20204;-85
2021/04/13 10:21:21;;;;;;;13.87;9.97;;;3.90;99.90;;;;;;4892970;29;20187;-85
2021/04/13 10:23:58;;;;;;;15.60;9.50;;;3.90;99.90;;;;;;4896773;29;20210;-84
2021/04/13 10:27:01;;;;;;;16.53;9.20;;;3.90;99.90;;;;;;4899059;29;20194;-84
2021/04/13 10:29:42;;;;;;;9.57;7.57;;;3.80;99.90;;;;;;4897924;29;20650;-85
2021/04/13 10:32:49;;;;;;;13.17;8.73;;;3.90;99.90;;;;;;4898130;29;20193;-85
2021/04/13 10:35:49;;;;;;;11.13;8.47;;;3.80;99.90;;;;;;4896757;29;20235;-86
2021/04/13 10:38:36;;;;;;;12.77;8.43;;;3.80;99.90;;;;;;4898477;29;20667;-84
2021/04/13 10:41:29;;;;;;;14.13;9.00;;;3.70;99.90;;;;;;4897343;29;20205;-84
2021/04/13 10:44:49;;;;;;;13.37;8.80;;;3.70;99.90;;;;;;4894767;29;20193;-87
2021/04/13 10:47:53;;;;;;;17.60;9.57;;;3.70;99.90;;;;;;4896635;29;20203;-83
2021/04/13 10:50:27;;;;;;;14.33;7.70;;;3.80;99.90;;;;;;4890116;29;20185;-85
2021/04/13 10:53:24;;;;;;;9.67;7.80;;;3.80;99.90;;;;;;4893137;29;20212;-85
2021/04/13 10:56:17;;;;;;;14.90;7.87;;;3.80;99.90;;;;;;4897240;29;20248;-83
2021/04/13 10:59:07;;;;;;;12.13;7.13;;;3.80;99.90;;;;;;4896976;29;20216;-84
2021/04/13 11:01:54;;;;;;;13.27;7.97;;;3.80;99.90;;;;;;4898406;29;20238;-84
2021/04/13 11:04:49;;;;;;;9.63;6.87;;;3.90;99.90;;;;;;4894260;29;20194;-87
2021/04/13 11:07:53;;;;;;;13.97;6.50;;;3.90;99.90;;;;;;4900614;29;20190;-85
2021/04/13 11:10:40;;;;;;;11.70;6.67;;;3.90;99.90;;;;;;4921987;29;20241;-84
2021/04/13 11:13:15;;;;;;;11.33;6.73;;;3.90;99.90;;;;;;4923396;29;20237;-86
2021/04/13 11:15:50;;;;;;;8.77;5.77;;;3.90;99.90;;;;;;4907651;29;20189;-85
2021/04/13 11:18:34;;;;;;;11.83;6.33;;;4.00;99.90;;;;;;4896593;29;20676;-84
2021/04/13 11:21:11;;;;;;;13.30;5.83;;;4.00;99.90;;;;;;4902354;29;20181;-85
2021/04/13 11:24:12;;;;;;;11.57;5.87;;;4.00;99.90;;;;;;4894162;29;20181;-85
2021/04/13 11:26:57;;;;;;;13.77;6.17;;;3.80;99.90;;;;;;4887454;29;20186;-85
2021/04/13 11:29:50;;;;;;;5.37;4.47;;;3.90;99.90;;;;;;4887774;29;20187;-85
2021/04/13 11:32:46;;;;;;;18.03;9.20;;;3.90;99.90;;;;;;4898000;29;20557;-85
2021/04/13 11:35:26;;;;;;;11.13;6.83;;;4.00;99.90;;;;;;4899937;29;20272;-85
2021/04/13 11:38:16;;;;;;;6.17;4.83;;;4.00;99.90;;;;;;4896731;29;20209;-85
2021/04/13 11:40:49;;;;;;;7.43;4.90;;;3.90;99.90;;;;;;4899740;29;20236;-86
2021/04/13 11:43:18;;;;;;;11.47;6.73;;;4.00;99.90;;;;;;4897355;29;20269;-83
2021/04/13 11:46:00;;;;;;;7.03;5.03;;;4.00;99.90;;;;;;4899444;29;20183;-85
2021/04/13 11:48:52;;;;;;;7.83;5.80;;;4.00;99.90;;;;;;4897634;29;20271;-85
2021/04/13 11:51:34;;;;;;;7.80;5.40;;;3.90;99.90;;;;;;4892862;29;20672;-86
2021/04/13 11:54:37;;;;;;;7.37;5.40;;;3.80;99.90;;;;;;4896885;29;20296;-86
2021/04/13 11:57:13;;;;;;;9.73;5.43;;;3.80;99.90;;;;;;4898817;29;20190;-86
2021/04/13 11:59:39;;;;;;;7.77;5.80;;;3.80;99.90;;;;;;4898394;29;20185;-85
2021/04/13 12:02:29;;;;;;;9.40;5.90;;;3.70;99.90;;;;;;4897493;29;20193;-86
2021/04/13 12:04:57;;;;;;;6.63;5.10;;;3.80;99.90;;;;;;4899021;29;20285;-86
2021/04/13 12:07:50;;;;;;;5.63;4.93;;;3.90;99.90;;;;;;4898834;29;20212;-85
2021/04/13 12:10:31;;;;;;;5.97;5.00;;;3.80;99.90;;;;;;4895547;29;20620;-85
2021/04/13 12:13:38;;;;;;;10.10;5.60;;;3.80;99.90;;;;;;4899332;29;20182;-85
2021/04/13 12:16:05;;;;;;;7.37;5.80;;;3.90;99.90;;;;;;4898031;29;20193;-86
2021/04/13 12:18:37;;;;;;;7.00;5.00;;;4.00;99.90;;;;;;4898046;29;20234;-84
2021/04/13 12:21:21;;;;;;;11.77;5.60;;;3.90;99.90;;;;;;4898881;29;20181;-85
2021/04/13 12:24:02;;;;;;;6.07;5.10;;;3.90;99.90;;;;;;4897833;29;20195;-84
2021/04/13 12:26:34;;;;;;;7.03;5.83;;;3.70;99.90;;;;;;4895868;29;20648;-85
2021/04/13 12:29:22;;;;;;;12.33;7.53;;;3.60;99.90;;;;;;4897611;29;20692;-84
2021/04/13 12:32:12;;;;;;;10.03;6.67;;;3.60;99.90;;;;;;4898731;29;20669;-84
2021/04/13 12:34:50;;;;;;;7.93;5.87;;;3.70;99.90;;;;;;4896963;29;20239;-85
2021/04/13 12:37:54;;;;;;;11.10;6.80;;;3.80;99.90;;;;;;4897557;29;20189;-85
2021/04/13 12:40:24;;;;;;;11.07;8.20;;;3.90;99.90;;;;;;4898235;29;20189;-84
2021/04/13 12:42:54;;;;;;;10.10;7.67;;;3.90;99.90;;;;;;4898462;29;20184;-84
2021/04/13 12:45:20;;;;;;;11.63;7.70;;;3.90;99.90;;;;;;4897677;29;20197;-84
2021/04/13 12:47:46;;;;;;;7.40;5.50;;;3.90;99.90;;;;;;4898104;29;20177;-84
2021/04/13 12:50:27;;;;;;;12.90;7.57;;;4.80;99.90;;;;;;4896129;29;20650;-85
2021/04/13 12:52:53;;;;;;;11.13;7.23;;;3.90;99.90;;;;;;4898434;29;20210;-85
2021/04/13 12:55:19;;;;;;;11.50;7.23;;;3.90;99.90;;;;;;4897771;29;20242;-86
2021/04/13 12:58:02;;;;;;;6.80;5.10;;;3.90;99.90;;;;;;4895664;29;20624;-85
2021/04/13 13:00:38;;;;;;;9.70;5.23;;;4.00;99.90;;;;;;4897081;29;20189;-86
2021/04/13 13:03:39;;;;;;;6.67;4.90;;;3.90;99.90;;;;;;4898202;29;20241;-85
2021/04/13 13:06:31;;;;;;;6.43;4.90;;;3.80;99.90;;;;;;4898192;29;20177;-85
2021/04/13 13:09:06;;;;;;;6.57;4.70;;;3.60;99.90;;;;;;4896357;29;20202;-85
2021/04/13 13:11:32;;;;;;;6.57;4.77;;;3.60;99.90;;;;;;4897243;29;20228;-86
2021/04/13 13:14:03;;;;;;;9.27;5.03;;;3.60;99.90;;;;;;4895612;29;20292;-85
2021/04/13 13:16:29;;;;;;;7.17;5.60;;;3.60;99.90;;;;;;4898944;29;20188;-85
2021/04/13 13:18:58;;;;;;;8.23;5.83;;;3.60;99.90;;;;;;4897396;29;20195;-84
2021/04/13 13:21:29;;;;;;;5.50;4.60;;;3.50;99.90;;;;;;4898585;29;20614;-84
2021/04/13 13:24:18;;;;;;;5.20;3.77;;;3.50;99.90;;;;;;4897176;29;20241;-84
2021/04/13 13:26:43;;;;;;;6.30;4.43;;;3.50;99.90;;;;;;4895581;29;20734;-85
2021/04/13 13:29:09;;;;;;;6.80;4.50;;;3.40;99.90;;;;;;4895558;29;20189;-85
2021/04/13 13:31:37;;;;;;;36.73;19.97;;;3.40;99.90;;;;;;4897456;29;20189;-84
2021/04/13 13:34:12;;;;;;;19.37;10.80;;;3.40;99.90;;;;;;4897705;29;20235;-84
2021/04/13 13:36:40;;;;;;;6.90;4.40;;;3.50;99.90;;;;;;4897889;29;20196;-85
2021/04/13 13:39:17;;;;;;;6.40;4.10;;;3.50;99.90;;;;;;4895491;29;20177;-86
2021/04/13 13:41:46;;;;;;;6.67;4.10;;;3.50;99.90;;;;;;4897012;29;20724;-86
2021/04/13 13:44:39;;;;;;;4.50;3.80;;;3.60;99.90;;;;;;4898022;29;20185;-86
2021/04/13 13:47:07;;;;;;;5.10;3.23;;;3.60;99.90;;;;;;4887761;29;20182;-85